Time;durP1;ratioP1;P1;durP2;ratioP2;P2;SDS_P1;SDS_P2;PMS_P1;PMS_P2;Temp;Humidity;BMP_temperature;BMP_pressure;BME280_temperature;BME280_humidity;BME280_pressure;Samples;Min_cycle;Max_cycle;Signal;HPM_P1;HPM_P2
2021/12/31 00:01:31;;;;;;;10.32;3.22;;;12.90;99.90;;;;;;4988737;28;20038;-70
2021/12/31 00:03:57;;;;;;;14.88;3.45;;;13.90;99.90;;;;;;4990352;28;20387;-70
2021/12/31 00:06:23;;;;;;;12.48;3.17;;;13.00;99.90;;;;;;4989605;28;20363;-70
2021/12/31 00:08:48;;;;;;;19.20;3.55;;;13.00;99.90;;;;;;4988076;28;20046;-70
2021/12/31 00:11:14;;;;;;;16.63;3.50;;;12.90;99.90;;;;;;4988452;28;20046;-70
2021/12/31 00:13:39;;;;;;;15.57;3.25;;;13.30;99.90;;;;;;4988083;28;20050;-70
2021/12/31 00:16:05;;;;;;;15.88;3.28;;;12.90;99.90;;;;;;4987743;28;20050;-70
2021/12/31 00:18:31;;;;;;;15.90;3.67;;;12.90;99.90;;;;;;4985161;28;20081;-71
2021/12/31 00:20:56;;;;;;;13.57;3.10;;;12.90;99.90;;;;;;4972800;28;20578;-70
2021/12/31 00:23:25;;;;;;;15.43;3.90;;;12.90;99.90;;;;;;4989277;28;20518;-70
2021/12/31 00:25:51;;;;;;;15.38;3.50;;;12.90;99.90;;;;;;4971494;28;20039;-70
2021/12/31 00:28:16;;;;;;;17.83;3.50;;;12.90;99.90;;;;;;4988777;28;20050;-70
2021/12/31 00:30:42;;;;;;;17.08;3.60;;;12.80;99.90;;;;;;4987323;28;20101;-70
2021/12/31 00:33:09;;;;;;;17.98;4.07;;;12.80;99.90;;;;;;4988757;28;20121;-71
2021/12/31 00:35:36;;;;;;;22.65;4.32;;;12.80;99.90;;;;;;4987098;28;20077;-70
2021/12/31 00:38:02;;;;;;;22.15;4.28;;;12.80;99.90;;;;;;4990652;28;20058;-70
2021/12/31 00:40:28;;;;;;;18.02;3.47;;;12.70;99.90;;;;;;4990356;28;20085;-70
2021/12/31 00:42:55;;;;;;;18.10;3.75;;;12.90;99.90;;;;;;4990008;28;20099;-70
2021/12/31 00:45:24;;;;;;;19.95;3.88;;;12.70;99.90;;;;;;4988091;28;20366;-70
2021/12/31 00:47:50;;;;;;;18.55;4.22;;;12.70;99.90;;;;;;4987077;28;20054;-70
2021/12/31 00:50:17;;;;;;;18.40;3.88;;;12.70;99.90;;;;;;4988229;28;20081;-70
2021/12/31 00:52:43;;;;;;;17.30;4.10;;;12.80;99.90;;;;;;4989331;28;20137;-70
2021/12/31 00:55:11;;;;;;;15.65;3.58;;;12.70;99.90;;;;;;4988889;28;20054;-70
2021/12/31 00:57:37;;;;;;;17.20;3.90;;;12.70;99.90;;;;;;4988292;28;20065;-70
2021/12/31 01:00:05;;;;;;;17.35;3.85;;;12.70;99.90;;;;;;4987550;28;20046;-70
2021/12/31 01:02:31;;;;;;;14.82;3.35;;;12.70;99.90;;;;;;4987635;28;20050;-70
2021/12/31 01:04:57;;;;;;;15.45;3.40;;;12.60;99.90;;;;;;4988405;28;20424;-70
2021/12/31 01:07:22;;;;;;;15.18;3.60;;;12.60;99.90;;;;;;4988546;28;20121;-70
2021/12/31 01:09:48;;;;;;;20.77;4.40;;;12.60;99.90;;;;;;4971192;28;20046;-70
2021/12/31 01:12:14;;;;;;;17.10;4.22;;;12.70;99.90;;;;;;4988508;28;20046;-70
2021/12/31 01:14:53;;;;;;;18.67;3.63;;;12.60;99.90;;;;;;4970467;28;20536;-70
2021/12/31 01:17:36;;;;;;;16.58;3.25;;;12.60;99.90;;;;;;4989052;28;20050;-70
2021/12/31 01:20:02;;;;;;;17.13;4.05;;;12.60;99.90;;;;;;4987303;28;20043;-70
2021/12/31 01:22:31;;;;;;;19.80;3.75;;;12.60;99.90;;;;;;4988094;28;20522;-71
2021/12/31 01:24:57;;;;;;;16.25;3.88;;;12.60;99.90;;;;;;4988387;28;20054;-70
2021/12/31 01:27:23;;;;;;;17.77;3.90;;;12.60;99.90;;;;;;4988748;28;20054;-70
2021/12/31 01:29:49;;;;;;;13.80;3.17;;;12.60;99.90;;;;;;4987416;28;20510;-70
2021/12/31 01:32:14;;;;;;;16.15;3.33;;;12.70;99.90;;;;;;4986819;28;20042;-70
2021/12/31 01:34:41;;;;;;;17.02;3.63;;;12.70;99.90;;;;;;4987336;28;20470;-70
2021/12/31 01:37:07;;;;;;;22.50;4.03;;;12.70;99.90;;;;;;4989287;28;20046;-70
2021/12/31 01:39:33;;;;;;;16.63;4.30;;;12.70;99.90;;;;;;4988582;28;20061;-70
2021/12/31 01:42:00;;;;;;;15.40;3.85;;;12.70;99.90;;;;;;4993439;28;20046;-70
2021/12/31 01:44:34;;;;;;;17.10;3.70;;;12.70;99.90;;;;;;4990330;28;20042;-71
2021/12/31 01:47:04;;;;;;;17.70;3.50;;;12.80;99.90;;;;;;4993661;28;20096;-70
2021/12/31 01:49:35;;;;;;;20.13;4.03;;;12.70;99.90;;;;;;4991564;28;20050;-70
2021/12/31 01:52:01;;;;;;;14.95;3.47;;;12.70;99.90;;;;;;4991533;28;20046;-70
2021/12/31 01:54:29;;;;;;;19.30;3.90;;;12.70;99.90;;;;;;4989490;28;20086;-70
2021/12/31 01:56:55;;;;;;;20.30;3.75;;;12.70;99.90;;;;;;4992840;28;20046;-70
2021/12/31 01:59:21;;;;;;;18.08;3.40;;;12.70;99.90;;;;;;4990624;28;20053;-70
2021/12/31 02:01:47;;;;;;;17.50;3.83;;;13.00;99.90;;;;;;4991633;28;20463;-70
2021/12/31 02:04:13;;;;;;;13.40;3.78;;;12.70;99.90;;;;;;4991135;28;20129;-70
2021/12/31 02:06:39;;;;;;;12.10;3.55;;;12.80;99.90;;;;;;4991597;28;20054;-70
2021/12/31 02:09:06;;;;;;;18.20;4.03;;;12.70;99.90;;;;;;4992109;28;20117;-70
2021/12/31 02:11:32;;;;;;;17.05;3.65;;;12.70;99.90;;;;;;4991786;28;20042;-70
2021/12/31 02:14:00;;;;;;;19.77;4.07;;;12.70;99.90;;;;;;4993374;28;20093;-70
2021/12/31 02:16:25;;;;;;;17.05;3.33;;;12.70;99.90;;;;;;4982286;28;20043;-70
2021/12/31 02:18:51;;;;;;;14.13;3.03;;;13.10;99.90;;;;;;4991523;28;20371;-70
2021/12/31 02:21:17;;;;;;;14.50;3.78;;;12.80;99.90;;;;;;4991190;28;20063;-70
2021/12/31 02:23:45;;;;;;;17.13;3.88;;;12.80;99.90;;;;;;4990049;28;20096;-71
2021/12/31 02:26:12;;;;;;;14.38;3.35;;;12.70;99.90;;;;;;4982602;28;20192;-70
2021/12/31 02:28:39;;;;;;;13.98;3.47;;;12.80;99.90;;;;;;4990862;28;20249;-70
2021/12/31 02:31:05;;;;;;;19.10;3.53;;;13.00;99.90;;;;;;4991706;28;20058;-70
2021/12/31 02:33:31;;;;;;;15.23;3.72;;;12.80;99.90;;;;;;4990748;28;20100;-69
2021/12/31 02:36:00;;;;;;;14.20;3.78;;;12.90;99.90;;;;;;4990946;28;20050;-70
2021/12/31 02:38:26;;;;;;;19.88;3.80;;;12.80;99.90;;;;;;4991269;28;20157;-70
2021/12/31 02:40:52;;;;;;;15.77;3.92;;;12.80;99.90;;;;;;4991087;28;20118;-70
2021/12/31 02:43:18;;;;;;;14.43;3.45;;;12.70;99.90;;;;;;4990838;28;20061;-71
2021/12/31 02:45:43;;;;;;;17.90;3.80;;;12.80;99.90;;;;;;4990657;28;20050;-70
2021/12/31 02:48:10;;;;;;;10.25;3.25;;;12.80;99.90;;;;;;4992292;28;20042;-70
2021/12/31 02:50:39;;;;;;;13.75;3.50;;;12.90;99.90;;;;;;4990400;28;20645;-70
2021/12/31 02:53:11;;;;;;;14.07;3.33;;;12.90;99.90;;;;;;4991034;28;20046;-70
2021/12/31 02:55:39;;;;;;;16.73;3.53;;;12.90;99.90;;;;;;4990709;28;20054;-71
2021/12/31 02:58:06;;;;;;;18.10;3.60;;;12.90;99.90;;;;;;4993630;28;20050;-70
2021/12/31 03:00:33;;;;;;;12.52;3.40;;;13.00;99.90;;;;;;4988676;28;20039;-70
2021/12/31 03:02:59;;;;;;;10.70;3.60;;;13.00;99.90;;;;;;4994656;28;20499;-70
2021/12/31 03:05:28;;;;;;;11.02;3.25;;;13.00;99.90;;;;;;4993192;28;20043;-70
2021/12/31 03:07:55;;;;;;;12.52;3.08;;;13.00;99.90;;;;;;4992395;28;20470;-70
2021/12/31 03:10:23;;;;;;;12.68;3.38;;;13.00;99.90;;;;;;4989863;28;20038;-70
2021/12/31 03:12:50;;;;;;;11.93;3.03;;;13.10;99.90;;;;;;4991107;28;20052;-70
2021/12/31 03:15:17;;;;;;;14.80;3.30;;;13.60;99.90;;;;;;4991493;28;20038;-70
2021/12/31 03:17:44;;;;;;;9.82;2.90;;;13.00;99.90;;;;;;4994599;28;20038;-70
2021/12/31 03:20:14;;;;;;;13.10;3.38;;;13.10;99.90;;;;;;4990841;28;20042;-70
2021/12/31 03:22:41;;;;;;;12.77;3.42;;;13.10;99.90;;;;;;4976284;28;20533;-71
2021/12/31 03:25:08;;;;;;;12.98;3.20;;;13.10;99.90;;;;;;4985768;28;20046;-70
2021/12/31 03:27:34;;;;;;;13.45;3.53;;;13.10;99.90;;;;;;4991086;28;20137;-70
2021/12/31 03:30:00;;;;;;;13.93;4.20;;;13.10;99.90;;;;;;4990044;28;20057;-70
2021/12/31 03:32:25;;;;;;;9.30;3.15;;;14.10;99.90;;;;;;4988969;28;20435;-70
2021/12/31 03:34:51;;;;;;;11.27;2.90;;;13.20;99.90;;;;;;4990589;28;20039;-70
2021/12/31 03:37:17;;;;;;;12.98;3.10;;;13.10;99.90;;;;;;4989106;28;20046;-70
2021/12/31 03:39:42;;;;;;;11.30;3.30;;;13.20;99.90;;;;;;4989400;28;20043;-70
2021/12/31 03:42:08;;;;;;;11.00;3.60;;;13.20;99.90;;;;;;4990450;28;20042;-70
2021/12/31 03:44:34;;;;;;;10.05;3.15;;;13.20;99.90;;;;;;4989644;28;20402;-70
2021/12/31 03:46:59;;;;;;;11.23;3.03;;;13.80;99.90;;;;;;4990251;28;20101;-70
2021/12/31 03:49:26;;;;;;;7.10;2.58;;;13.10;99.90;;;;;;4987694;28;20038;-70
2021/12/31 03:51:52;;;;;;;10.38;3.03;;;13.10;99.90;;;;;;4990592;28;20050;-70
2021/12/31 03:54:18;;;;;;;12.40;2.97;;;13.20;99.90;;;;;;4987906;28;20419;-70
2021/12/31 03:56:46;;;;;;;11.52;3.40;;;13.50;99.90;;;;;;4991004;28;20101;-70
2021/12/31 03:59:12;;;;;;;9.88;2.80;;;13.50;99.90;;;;;;4987527;28;20769;-70
2021/12/31 04:01:38;;;;;;;11.65;2.80;;;13.10;99.90;;;;;;4971901;28;20046;-70
2021/12/31 04:04:06;;;;;;;13.07;3.55;;;13.20;99.90;;;;;;4990864;28;20042;-70
2021/12/31 04:06:32;;;;;;;8.93;2.58;;;13.10;99.90;;;;;;4989799;28;20042;-70
2021/12/31 04:08:57;;;;;;;8.30;2.55;;;13.10;99.90;;;;;;4990219;28;20035;-70
2021/12/31 04:11:23;;;;;;;16.73;3.45;;;13.10;99.90;;;;;;4987459;28;20483;-69
2021/12/31 04:13:48;;;;;;;7.15;2.67;;;13.20;99.90;;;;;;4989330;28;20379;-70
2021/12/31 04:16:14;;;;;;;9.77;2.80;;;13.20;99.90;;;;;;4989426;28;20137;-70
2021/12/31 04:18:40;;;;;;;10.90;2.60;;;13.10;99.90;;;;;;4990061;28;20061;-70
2021/12/31 04:21:06;;;;;;;12.20;3.22;;;13.10;99.90;;;;;;4989171;28;20090;-70
2021/12/31 04:23:35;;;;;;;10.05;3.05;;;13.10;99.90;;;;;;4987695;28;20042;-70
2021/12/31 04:26:01;;;;;;;9.68;2.83;;;13.20;99.90;;;;;;4977869;28;20125;-70
2021/12/31 04:28:28;;;;;;;10.52;3.15;;;13.20;99.90;;;;;;4987419;28;20141;-70
2021/12/31 04:30:54;;;;;;;10.23;2.85;;;13.20;99.90;;;;;;4989133;28;20399;-70
2021/12/31 04:33:19;;;;;;;10.85;3.05;;;13.30;99.90;;;;;;4988895;28;20050;-68
2021/12/31 04:35:45;;;;;;;12.90;3.38;;;13.30;99.90;;;;;;4989119;28;20050;-68
2021/12/31 04:38:11;;;;;;;9.57;2.80;;;13.30;99.90;;;;;;4989646;28;20240;-69
2021/12/31 04:40:37;;;;;;;8.38;3.00;;;13.30;99.90;;;;;;4983307;28;20047;-68
2021/12/31 04:43:03;;;;;;;10.48;3.03;;;13.30;99.90;;;;;;4989390;28;20121;-68
2021/12/31 04:45:29;;;;;;;11.25;2.95;;;14.30;99.90;;;;;;4987783;28;20108;-68
2021/12/31 04:47:54;;;;;;;8.57;2.47;;;14.00;99.90;;;;;;4989505;28;20486;-69
2021/12/31 04:50:20;;;;;;;8.63;3.33;;;13.40;99.90;;;;;;4988394;28;20069;-69
2021/12/31 04:52:46;;;;;;;8.85;2.97;;;13.40;99.90;;;;;;4988999;28;20042;-68
2021/12/31 04:55:12;;;;;;;11.20;2.40;;;13.40;99.90;;;;;;4988578;28;20134;-68
2021/12/31 04:57:38;;;;;;;12.75;2.78;;;13.40;99.90;;;;;;4989445;28;20154;-69
2021/12/31 05:00:07;;;;;;;7.60;2.58;;;13.40;99.90;;;;;;4988710;28;20446;-72
2021/12/31 05:02:33;;;;;;;11.27;2.75;;;13.40;99.90;;;;;;4988910;28;20137;-69
2021/12/31 05:05:01;;;;;;;12.27;3.05;;;13.40;99.90;;;;;;4989375;28;20453;-69
2021/12/31 05:07:27;;;;;;;9.52;2.97;;;13.40;99.90;;;;;;4989229;28;20481;-69
2021/12/31 05:09:53;;;;;;;6.45;2.50;;;13.40;99.90;;;;;;4988772;28;20048;-69
2021/12/31 05:12:24;;;;;;;8.30;2.50;;;13.40;99.90;;;;;;4988914;28;20045;-69
2021/12/31 05:14:50;;;;;;;8.52;2.70;;;13.40;99.90;;;;;;4988177;28;20133;-69
2021/12/31 05:17:15;;;;;;;6.78;2.63;;;13.30;99.90;;;;;;4988604;28;20121;-69
2021/12/31 05:19:44;;;;;;;7.15;2.58;;;13.30;99.90;;;;;;4987926;28;20066;-69
2021/12/31 05:22:13;;;;;;;9.80;2.90;;;13.30;99.90;;;;;;4989556;28;20100;-69
2021/12/31 05:24:40;;;;;;;8.27;2.78;;;13.30;99.90;;;;;;4988097;28;20062;-69
2021/12/31 05:27:06;;;;;;;7.55;2.40;;;13.30;99.90;;;;;;4990482;28;20046;-69
2021/12/31 05:29:35;;;;;;;6.32;2.28;;;13.30;99.90;;;;;;4970537;28;20231;-69
2021/12/31 05:32:01;;;;;;;8.80;3.10;;;13.30;99.90;;;;;;4988546;28;20043;-69
2021/12/31 05:34:26;;;;;;;8.52;2.47;;;13.30;99.90;;;;;;4988395;28;20384;-69
2021/12/31 05:36:52;;;;;;;6.70;2.63;;;13.30;99.90;;;;;;4988754;28;20042;-69
2021/12/31 05:39:18;;;;;;;6.95;2.40;;;13.30;99.90;;;;;;4986633;28;20367;-70
2021/12/31 05:41:43;;;;;;;10.57;2.70;;;13.30;99.90;;;;;;4987758;28;20053;-69
2021/12/31 05:44:10;;;;;;;7.03;2.78;;;13.30;99.90;;;;;;4988587;28;20046;-69
2021/12/31 05:46:36;;;;;;;8.98;3.10;;;13.20;99.90;;;;;;4987429;28;20061;-69
2021/12/31 05:49:03;;;;;;;10.48;2.90;;;13.20;99.90;;;;;;4975397;28;20054;-70
2021/12/31 05:51:30;;;;;;;10.27;3.38;;;13.20;99.90;;;;;;4986669;28;20479;-69
2021/12/31 05:53:56;;;;;;;7.20;2.83;;;13.10;99.90;;;;;;4980117;28;20055;-70
2021/12/31 05:56:22;;;;;;;8.55;3.38;;;13.10;99.90;;;;;;4977712;28;20039;-69
2021/12/31 05:58:47;;;;;;;8.48;2.92;;;13.10;99.90;;;;;;4987800;28;20034;-69
2021/12/31 06:01:13;;;;;;;8.15;2.85;;;13.10;99.90;;;;;;4988591;28;20046;-69
2021/12/31 06:03:38;;;;;;;8.05;3.20;;;13.20;99.90;;;;;;4989957;28;20125;-69
2021/12/31 06:06:04;;;;;;;12.02;3.70;;;13.20;99.90;;;;;;4988575;28;20455;-69
2021/12/31 06:08:30;;;;;;;6.25;2.78;;;13.20;99.90;;;;;;4987863;28;20430;-69
2021/12/31 06:10:56;;;;;;;6.88;2.72;;;13.20;99.90;;;;;;4988170;28;20475;-69
2021/12/31 06:13:22;;;;;;;7.28;2.95;;;13.30;99.90;;;;;;4969581;28;20121;-69
2021/12/31 06:15:54;;;;;;;7.65;2.53;;;13.30;99.90;;;;;;4987641;28;20129;-69
2021/12/31 06:18:20;;;;;;;6.60;3.10;;;13.20;99.90;;;;;;4986445;28;20397;-70
2021/12/31 06:20:46;;;;;;;7.03;3.08;;;13.30;99.90;;;;;;4986498;28;20058;-70
2021/12/31 06:23:11;;;;;;;7.78;2.85;;;13.40;99.90;;;;;;4971416;28;20089;-70
2021/12/31 06:25:37;;;;;;;7.90;3.28;;;13.40;99.90;;;;;;4990252;28;20502;-69
2021/12/31 06:28:03;;;;;;;6.25;2.65;;;13.40;99.90;;;;;;4990621;28;20513;-70
2021/12/31 06:30:29;;;;;;;4.90;2.70;;;13.40;99.90;;;;;;4989921;28;20365;-70
2021/12/31 06:32:54;;;;;;;7.22;2.72;;;13.40;99.90;;;;;;4991983;28;20054;-70
2021/12/31 06:35:20;;;;;;;9.35;2.97;;;14.00;99.90;;;;;;4989929;28;20471;-70
2021/12/31 06:37:48;;;;;;;8.57;2.70;;;13.40;99.90;;;;;;4990984;28;20046;-69
2021/12/31 06:40:14;;;;;;;6.32;2.65;;;13.30;99.90;;;;;;4991865;28;20516;-70
2021/12/31 06:42:40;;;;;;;5.05;2.55;;;13.40;99.90;;;;;;4990874;28;20046;-70
2021/12/31 06:45:06;;;;;;;6.50;2.60;;;13.40;99.90;;;;;;4991355;28;20053;-70
2021/12/31 06:47:32;;;;;;;5.60;2.55;;;13.40;99.90;;;;;;4989702;28;20114;-69
2021/12/31 06:49:58;;;;;;;4.50;2.55;;;14.40;99.90;;;;;;4990843;28;20532;-70
2021/12/31 06:52:23;;;;;;;7.95;2.97;;;13.30;99.90;;;;;;4991009;28;20053;-69
2021/12/31 06:54:52;;;;;;;6.65;2.70;;;13.30;99.90;;;;;;4991679;28;20376;-69
2021/12/31 06:57:17;;;;;;;8.98;2.80;;;13.30;99.90;;;;;;4991538;28;20057;-70
2021/12/31 06:59:43;;;;;;;7.47;3.28;;;13.30;99.90;;;;;;4990712;28;20133;-69
2021/12/31 07:02:08;;;;;;;6.13;2.63;;;14.10;99.90;;;;;;4975697;28;20505;-70
2021/12/31 07:04:34;;;;;;;7.50;3.25;;;13.30;99.90;;;;;;4989036;28;20042;-70
2021/12/31 07:07:00;;;;;;;8.18;2.70;;;13.30;99.90;;;;;;4991056;28;20108;-70
2021/12/31 07:09:25;;;;;;;5.95;2.65;;;13.30;99.90;;;;;;4990778;28;20052;-70
2021/12/31 07:11:51;;;;;;;6.68;2.83;;;13.30;99.90;;;;;;4994043;28;20444;-70
2021/12/31 07:14:16;;;;;;;5.57;2.80;;;13.30;99.90;;;;;;4990487;28;20042;-70
2021/12/31 07:16:42;;;;;;;5.78;2.97;;;13.30;99.90;;;;;;4990776;28;20052;-70
2021/12/31 07:19:08;;;;;;;5.30;2.70;;;13.60;99.90;;;;;;4990854;28;20423;-70
2021/12/31 07:21:33;;;;;;;5.07;2.60;;;13.30;99.90;;;;;;4991287;28;20085;-69
2021/12/31 07:23:59;;;;;;;6.93;2.65;;;13.20;99.90;;;;;;4991146;28;20060;-70
2021/12/31 07:26:25;;;;;;;7.25;3.15;;;13.30;99.90;;;;;;4994661;28;20039;-70
2021/12/31 07:28:50;;;;;;;6.80;2.70;;;13.20;99.90;;;;;;4990572;28;20132;-67
2021/12/31 07:31:16;;;;;;;5.90;2.72;;;13.20;99.90;;;;;;4989212;28;20046;-68
2021/12/31 07:33:42;;;;;;;7.47;2.88;;;13.20;99.90;;;;;;4991139;28;20050;-67
2021/12/31 07:36:08;;;;;;;5.85;2.50;;;13.20;99.90;;;;;;4989968;28;20049;-68
2021/12/31 07:38:37;;;;;;;4.93;2.58;;;13.20;99.90;;;;;;4981557;28;20058;-67
2021/12/31 07:41:03;;;;;;;6.15;2.60;;;13.10;99.90;;;;;;4990440;28;20057;-67
2021/12/31 07:43:29;;;;;;;9.10;3.20;;;13.10;99.90;;;;;;4989434;28;20042;-68
2021/12/31 07:45:55;;;;;;;7.43;2.78;;;13.10;99.90;;;;;;4989379;28;20041;-68
2021/12/31 07:48:21;;;;;;;6.10;2.90;;;13.10;99.90;;;;;;4988666;28;20046;-67
2021/12/31 07:50:47;;;;;;;9.02;3.13;;;13.00;99.90;;;;;;4991306;28;20113;-68
2021/12/31 07:53:13;;;;;;;6.03;2.60;;;13.00;99.90;;;;;;4989599;28;20125;-68
2021/12/31 07:55:39;;;;;;;8.55;2.90;;;13.10;99.90;;;;;;4989942;28;20117;-67
2021/12/31 07:58:05;;;;;;;7.63;2.70;;;13.00;99.90;;;;;;4988820;28;20554;-67
2021/12/31 08:00:32;;;;;;;5.95;2.60;;;13.20;99.90;;;;;;4989047;28;20070;-67
2021/12/31 08:02:59;;;;;;;5.95;2.50;;;13.60;99.90;;;;;;4989624;28;20046;-68
2021/12/31 08:05:27;;;;;;;5.72;2.58;;;13.90;99.90;;;;;;4989151;28;20130;-68
2021/12/31 08:07:53;;;;;;;6.70;2.60;;;13.20;99.90;;;;;;4990563;28;20081;-67
2021/12/31 08:10:19;;;;;;;5.53;2.60;;;13.20;99.90;;;;;;4988632;28;20080;-68
2021/12/31 08:12:45;;;;;;;5.30;2.50;;;13.30;99.90;;;;;;4988183;28;20042;-68
2021/12/31 08:15:11;;;;;;;11.15;2.80;;;13.90;99.90;;;;;;4989380;28;20454;-68
2021/12/31 08:17:37;;;;;;;4.82;2.50;;;13.20;99.90;;;;;;4986067;28;20061;-68
2021/12/31 08:20:04;;;;;;;6.10;2.40;;;13.50;99.90;;;;;;4990371;28;20083;-67
2021/12/31 08:22:29;;;;;;;7.07;2.47;;;13.30;99.90;;;;;;4989495;28;20406;-67
2021/12/31 08:24:55;;;;;;;5.60;2.60;;;13.30;99.90;;;;;;4988502;28;20038;-67
2021/12/31 08:27:21;;;;;;;6.28;2.25;;;13.30;99.90;;;;;;4991482;28;20046;-68
2021/12/31 08:29:46;;;;;;;5.15;2.60;;;13.30;99.90;;;;;;4988977;28;20513;-68
2021/12/31 08:32:12;;;;;;;8.73;2.80;;;13.40;99.90;;;;;;4989726;28;20045;-68
2021/12/31 08:34:37;;;;;;;7.47;2.78;;;13.30;99.90;;;;;;4989423;28;20058;-68
2021/12/31 08:37:03;;;;;;;6.70;2.80;;;13.30;99.90;;;;;;4988319;28;20382;-67
2021/12/31 08:39:29;;;;;;;6.18;2.80;;;13.40;99.90;;;;;;4986769;28;20554;-67
2021/12/31 08:41:55;;;;;;;7.28;2.60;;;13.40;99.90;;;;;;4989938;28;20486;-67
2021/12/31 08:44:20;;;;;;;5.57;2.40;;;13.50;99.90;;;;;;4987064;28;20035;-67
2021/12/31 08:46:47;;;;;;;6.70;2.60;;;13.50;99.90;;;;;;4988824;28;20108;-67
2021/12/31 08:49:13;;;;;;;6.93;2.60;;;13.40;99.90;;;;;;4987351;28;20050;-67
2021/12/31 08:51:39;;;;;;;15.30;2.97;;;13.40;99.90;;;;;;4987742;28;20038;-67
2021/12/31 08:54:05;;;;;;;10.95;2.80;;;13.40;99.90;;;;;;4987117;28;20049;-67
2021/12/31 08:56:30;;;;;;;5.07;2.50;;;13.40;99.90;;;;;;4987990;28;20561;-67
2021/12/31 08:58:56;;;;;;;5.75;2.58;;;13.40;99.90;;;;;;4989136;28;20455;-67
2021/12/31 09:01:21;;;;;;;6.97;2.72;;;13.40;99.90;;;;;;4987489;28;20140;-67
2021/12/31 09:03:47;;;;;;;6.85;2.78;;;13.40;99.90;;;;;;4989818;28;20057;-67
2021/12/31 09:06:18;;;;;;;5.35;2.53;;;13.40;99.90;;;;;;4989042;28;20189;-68
2021/12/31 09:08:45;;;;;;;6.03;2.70;;;13.40;99.90;;;;;;4987071;28;20102;-67
2021/12/31 09:11:10;;;;;;;7.32;3.00;;;13.40;99.90;;;;;;4988665;28;20056;-67
2021/12/31 09:13:36;;;;;;;7.10;3.03;;;13.30;99.90;;;;;;4987388;28;20132;-67
2021/12/31 09:16:02;;;;;;;6.55;2.60;;;13.30;99.90;;;;;;4987777;28;20359;-67
2021/12/31 09:18:28;;;;;;;7.72;3.00;;;13.30;99.90;;;;;;4986660;28;20050;-67
2021/12/31 09:20:54;;;;;;;7.43;3.03;;;14.00;99.90;;;;;;4988384;28;20640;-67
2021/12/31 09:23:20;;;;;;;6.65;3.05;;;13.50;99.90;;;;;;4988315;28;20049;-70
2021/12/31 09:25:45;;;;;;;10.07;2.80;;;13.30;99.90;;;;;;4987176;28;20046;-66
2021/12/31 09:28:11;;;;;;;9.45;2.72;;;13.30;99.90;;;;;;4987541;28;20458;-66
2021/12/31 09:30:37;;;;;;;5.93;2.70;;;14.10;99.90;;;;;;4985548;28;20048;-66
2021/12/31 09:33:02;;;;;;;5.05;2.97;;;13.30;99.90;;;;;;4989132;28;20129;-66
2021/12/31 09:35:28;;;;;;;6.63;3.08;;;13.20;99.90;;;;;;4987675;28;20043;-67
2021/12/31 09:37:55;;;;;;;7.55;3.03;;;13.30;99.90;;;;;;4987368;28;20430;-67
2021/12/31 09:40:22;;;;;;;7.57;3.05;;;13.20;99.90;;;;;;4987086;28;20388;-67
2021/12/31 09:43:04;;;;;;;8.30;2.90;;;13.30;99.90;;;;;;4987806;28;20046;-66
2021/12/31 09:45:32;;;;;;;6.07;2.97;;;13.30;99.90;;;;;;4987053;28;20245;-67
2021/12/31 09:47:59;;;;;;;6.93;2.92;;;13.30;99.90;;;;;;4988608;28;20084;-67
2021/12/31 09:50:28;;;;;;;9.18;3.15;;;13.30;99.90;;;;;;4991294;28;20057;-67
2021/12/31 09:52:54;;;;;;;9.18;3.10;;;13.30;99.90;;;;;;4987587;28;20046;-67
2021/12/31 09:55:39;;;;;;;9.25;2.70;;;13.20;99.90;;;;;;4987742;28;20406;-67
2021/12/31 09:58:06;;;;;;;7.43;2.88;;;13.20;99.90;;;;;;4987052;28;20046;-66
2021/12/31 10:00:32;;;;;;;7.80;2.90;;;13.20;99.90;;;;;;4985981;28;20047;-66
2021/12/31 10:03:15;;;;;;;5.18;2.72;;;13.40;99.90;;;;;;4972430;28;20050;-67
2021/12/31 10:05:48;;;;;;;7.30;2.60;;;13.20;99.90;;;;;;4971777;28;20055;-66
2021/12/31 10:08:27;;;;;;;6.85;2.92;;;13.10;99.90;;;;;;4971343;28;20479;-67
2021/12/31 10:11:09;;;;;;;8.10;3.40;;;13.10;99.90;;;;;;4976169;28;20039;-67
2021/12/31 10:13:37;;;;;;;6.93;2.80;;;13.10;99.90;;;;;;4972982;28;20043;-66
2021/12/31 10:16:03;;;;;;;10.95;3.33;;;13.00;99.90;;;;;;4986904;28;20043;-67
2021/12/31 10:18:31;;;;;;;7.65;3.30;;;12.90;99.90;;;;;;4988650;28;20375;-66
2021/12/31 10:20:56;;;;;;;8.60;3.30;;;12.90;99.90;;;;;;4991776;28;20089;-67
2021/12/31 10:23:22;;;;;;;9.73;3.40;;;12.90;99.90;;;;;;4993513;28;20506;-67
2021/12/31 10:25:48;;;;;;;7.57;2.92;;;12.90;99.90;;;;;;4991643;28;20140;-67
2021/12/31 10:28:16;;;;;;;8.90;3.47;;;12.90;99.90;;;;;;4975568;28;20137;-68
2021/12/31 10:30:43;;;;;;;9.77;3.50;;;12.80;99.90;;;;;;4980305;28;20053;-67
2021/12/31 10:33:09;;;;;;;9.75;3.92;;;12.80;99.90;;;;;;4991154;28;20440;-67
2021/12/31 10:35:43;;;;;;;8.13;3.42;;;12.80;99.90;;;;;;4991231;28;20342;-66
2021/12/31 10:38:11;;;;;;;7.38;3.15;;;12.80;99.90;;;;;;4988359;28;20417;-66
2021/12/31 10:40:45;;;;;;;8.55;3.05;;;12.80;99.90;;;;;;4990422;28;20050;-66
2021/12/31 10:43:23;;;;;;;9.75;3.35;;;12.70;99.90;;;;;;4991684;28;20475;-67
2021/12/31 10:46:00;;;;;;;8.18;3.45;;;12.60;99.90;;;;;;4987422;28;20042;-67
2021/12/31 10:48:46;;;;;;;7.85;3.20;;;12.80;99.90;;;;;;4990931;28;20050;-67
2021/12/31 10:51:14;;;;;;;8.52;3.10;;;12.80;99.90;;;;;;4990319;28;20054;-67
2021/12/31 10:53:43;;;;;;;9.23;3.22;;;12.80;99.90;;;;;;4995171;28;20418;-67
2021/12/31 10:56:14;;;;;;;8.88;3.53;;;12.70;99.90;;;;;;4991084;28;20085;-67
2021/12/31 10:58:45;;;;;;;7.57;3.08;;;13.00;99.90;;;;;;4972846;28;20046;-66
2021/12/31 11:01:14;;;;;;;8.95;3.35;;;12.70;99.90;;;;;;4990437;28;20121;-66
2021/12/31 11:03:41;;;;;;;10.02;3.58;;;13.60;99.90;;;;;;4989862;28;20441;-67
2021/12/31 11:06:09;;;;;;;8.45;3.78;;;12.70;99.90;;;;;;4990125;28;20042;-67
2021/12/31 11:08:36;;;;;;;9.70;3.78;;;12.70;99.90;;;;;;4989630;28;20980;-66
2021/12/31 11:11:04;;;;;;;7.70;3.40;;;12.70;99.90;;;;;;4989237;28;20050;-67
2021/12/31 11:13:30;;;;;;;7.93;3.70;;;12.70;99.90;;;;;;4990847;28;20402;-67
2021/12/31 11:16:00;;;;;;;9.73;4.45;;;12.70;99.90;;;;;;4990546;28;20112;-68
2021/12/31 11:18:27;;;;;;;11.48;3.67;;;12.70;99.90;;;;;;4989267;28;20042;-67
2021/12/31 11:21:02;;;;;;;7.45;3.90;;;12.70;99.90;;;;;;4989392;28;20054;-67
2021/12/31 11:23:30;;;;;;;10.88;4.18;;;12.70;99.90;;;;;;4990283;28;20058;-67
2021/12/31 11:26:01;;;;;;;7.22;3.90;;;12.60;99.90;;;;;;4989165;28;20046;-67
2021/12/31 11:28:29;;;;;;;13.75;4.90;;;12.60;99.90;;;;;;4987510;28;20510;-67
2021/12/31 11:30:56;;;;;;;9.13;4.13;;;12.50;99.90;;;;;;4990287;28;20106;-66
2021/12/31 11:33:27;;;;;;;10.32;4.50;;;12.50;99.90;;;;;;4990476;28;20411;-67
2021/12/31 11:36:06;;;;;;;12.30;4.53;;;12.50;99.90;;;;;;4989083;28;20136;-67
2021/12/31 11:38:31;;;;;;;9.55;4.57;;;12.50;99.90;;;;;;4987867;28;20042;-67
2021/12/31 11:41:04;;;;;;;8.30;4.32;;;12.50;99.90;;;;;;4987589;28;20422;-67
2021/12/31 11:43:31;;;;;;;8.10;4.10;;;12.40;99.90;;;;;;4971692;28;20050;-67
2021/12/31 11:46:12;;;;;;;12.40;4.63;;;12.50;99.90;;;;;;4991181;28;20081;-67
2021/12/31 11:48:47;;;;;;;11.73;4.40;;;12.50;99.90;;;;;;4991427;28;20952;-66
2021/12/31 11:51:13;;;;;;;7.68;4.25;;;12.40;99.90;;;;;;4988931;28;20483;-67
2021/12/31 11:54:00;;;;;;;10.50;4.05;;;12.40;99.90;;;;;;4990047;28;20124;-67
2021/12/31 11:56:37;;;;;;;9.43;4.38;;;12.40;99.90;;;;;;4987703;28;20049;-67
2021/12/31 11:59:19;;;;;;;9.60;4.25;;;12.30;99.90;;;;;;4979396;28;20177;-67
2021/12/31 12:01:51;;;;;;;8.73;3.80;;;12.40;99.90;;;;;;4969364;28;20043;-66
2021/12/31 12:04:22;;;;;;;10.98;4.30;;;12.30;99.90;;;;;;4969884;28;20050;-67
2021/12/31 12:06:51;;;;;;;10.15;4.30;;;12.30;99.90;;;;;;4985946;28;20043;-68
2021/12/31 12:09:16;;;;;;;7.28;4.10;;;12.40;99.90;;;;;;4969398;28;20074;-68
2021/12/31 12:12:01;;;;;;;8.07;4.20;;;12.30;99.90;;;;;;4974538;28;20050;-68
2021/12/31 12:14:45;;;;;;;7.18;3.78;;;12.30;99.90;;;;;;4969492;28;20086;-67
2021/12/31 12:17:12;;;;;;;7.38;4.20;;;13.30;99.90;;;;;;4988956;28;20375;-67
2021/12/31 12:19:50;;;;;;;8.23;4.45;;;12.30;99.90;;;;;;4988313;28;20154;-67
2021/12/31 12:22:33;;;;;;;8.60;4.28;;;12.30;99.90;;;;;;4984832;28;20054;-68
2021/12/31 12:25:07;;;;;;;10.63;3.95;;;12.20;99.90;;;;;;4978344;28;20085;-69
2021/12/31 12:27:33;;;;;;;7.28;4.07;;;12.10;99.90;;;;;;4997167;28;20054;-69
2021/12/31 12:30:02;;;;;;;6.10;3.95;;;12.10;99.90;;;;;;4984811;28;20043;-70
2021/12/31 12:34:56;;;;;;;5.53;3.10;;;12.10;99.90;;;;;;4986093;28;20058;-69
2021/12/31 12:37:29;;;;;;;5.13;3.30;;;12.20;99.90;;;;;;4985174;28;20509;-70
2021/12/31 12:40:03;;;;;;;6.20;3.45;;;12.20;99.90;;;;;;4985166;28;20046;-70
2021/12/31 12:42:28;;;;;;;6.18;3.55;;;12.20;99.90;;;;;;4984917;28;20056;-69
2021/12/31 12:45:05;;;;;;;6.70;4.30;;;12.20;99.90;;;;;;4985257;28;20153;-69
2021/12/31 12:47:31;;;;;;;7.13;3.92;;;12.20;99.90;;;;;;4984692;28;20084;-69